Marseille, France

7:57 AM CET on October 26, 2014 (GMT +0100)
Realtor | Change Station
CLOSE
Current Station
Personal Weather Station
Location: CABRIES, PACA
Elevation: 590 ft
Nearby Weather Stations

Elev 590 ft 43.47 °N, 5.34 °E | Updated 14 minutes ago

Scattered Clouds
Scattered Clouds
49.7 °F
Feels Like 50 °F
N
0.0
Wind Variable Wind from East
Gusts 1.0 mph

Today
High -- | Low -- °F
--% Chance of Precip.
Yesterday
High -- | Low -- °F
Precip. -- in
7:06 AM 5:39 PM
Waxing Crescent, 6% visible
Pressure 30.15 in
Visibility 6.2 miles
Clouds Scattered Clouds 2200 ft
Windchill 50 °F
Dew Point 48 °F
Humidity 95%
Rainfall 0.00 in
Snow Depth Not available.
UV 0 out of 12
Pollen Not available.
Air Quality Not available.
Flu Activity Not available.
METAR LFML 260630Z 14005KT 9999 SCT022 12/10 Q1021 NOSIG

More Conditions Fewer Conditions

Pressure 30.15 in
Visibility 6.2 miles
Clouds Scattered Clouds 2200 ft
Windchill 50 °F
Dew Point 48 °F
Humidity 95%
Rainfall 0.00 in
Snow Depth Not available.
UV 0 out of 12
Pollen Not available.
Air Quality Not available.
Flu Activity Not available.
METAR LFML 260630Z 14005KT 9999 SCT022 12/10 Q1021 NOSIG

More Conditions Fewer Conditions

10-Day Weather Forecast

Almanac

Astronomy

Oct. 26, 2014 Rise Set
Actual Time 7:06 AM CET 5:39 PM CET
Civil Twilight 6:37 AM CET 6:08 PM CET
Nautical Twilight 6:03 AM CET 6:41 PM CET
Astronomical Twilight 5:30 AM CET 7:14 PM CET
Moon 9:32 AM CET 7:34 PM CET
Length of Visible Light 11h 31m
Length of Day
10h 32m
Tomorrow will be 2m 45s shorter.
Waxing Crescent, 6% of the Moon is Illuminated
Today
Waxing Crescent
Oct 30
First Quarter
Nov 6
Full
Nov 14
Last Quarter
Nov 22
New

Yesterday's Extremes

Country Highs Country Lows

Community

WunderPhotos

Upload Photos

1,765,117 photos uploaded!

Nearby

Snow Depth

Not available.

Earthquake Activity

City Distance Mag. Time & Date
No recent earthquake activity has been reported nearby.
Minimum magnitude displayed is 2.5.

Coastal Water Temperatures

Place Temperature
No Stations Reporting

Nearby Weather Stations